createdAt,value
2017-12-17T00:00:06.317Z,941.7
2017-12-17T00:01:14.539Z,941.7
2017-12-17T00:02:22.448Z,941.7
2017-12-17T00:03:30.527Z,941.7
2017-12-17T00:04:38.612Z,941.7
2017-12-17T00:05:46.766Z,941.7
2017-12-17T00:06:54.913Z,941.7
2017-12-17T00:08:02.879Z,941.7
2017-12-17T00:09:10.968Z,941.7
2017-12-17T00:10:19.121Z,941.7
2017-12-17T00:11:27.190Z,941.7
2017-12-17T00:12:35.219Z,941.8
2017-12-17T00:13:43.431Z,941.8
2017-12-17T00:14:51.391Z,941.8
2017-12-17T00:15:59.484Z,941.8
2017-12-17T00:17:07.629Z,941.7
2017-12-17T00:18:15.669Z,941.8
2017-12-17T00:19:23.811Z,941.8
2017-12-17T00:20:31.841Z,941.7
2017-12-17T00:21:39.926Z,941.8
2017-12-17T00:22:48.144Z,941.8
2017-12-17T00:23:56.101Z,941.8
2017-12-17T00:25:04.185Z,941.7
2017-12-17T00:26:12.399Z,941.8
2017-12-17T00:27:20.362Z,941.8
2017-12-17T00:28:28.505Z,941.8
2017-12-17T00:29:36.655Z,941.7
2017-12-17T00:30:44.629Z,941.7
2017-12-17T00:31:52.726Z,941.7
2017-12-17T00:33:00.805Z,941.7
2017-12-17T00:34:09.106Z,941.7
2017-12-17T00:35:16.978Z,941.7
2017-12-17T00:36:25.063Z,941.7
2017-12-17T00:37:33.151Z,941.7
2017-12-17T00:38:41.339Z,941.7
2017-12-17T00:39:49.378Z,941.7
2017-12-17T00:40:57.407Z,941.7
2017-12-17T00:42:05.494Z,941.7
2017-12-17T00:43:13.679Z,941.7
2017-12-17T00:44:21.671Z,941.7
2017-12-17T00:45:29.878Z,941.7
2017-12-17T00:46:39.110Z,941.8
2017-12-17T00:47:47.192Z,941.8
2017-12-17T00:48:55.282Z,941.8
2017-12-17T00:50:03.367Z,941.8
2017-12-17T00:51:11.665Z,941.8
2017-12-17T00:52:19.548Z,941.8
2017-12-17T00:53:27.630Z,941.9
2017-12-17T00:54:35.727Z,941.9
2017-12-17T00:55:43.805Z,941.8
2017-12-17T00:56:52.015Z,941.9
2017-12-17T00:57:59.979Z,941.8
2017-12-17T00:59:08.063Z,941.8
2017-12-17T01:00:16.332Z,941.8
2017-12-17T01:01:25.274Z,941.8
2017-12-17T01:02:33.294Z,941.8
2017-12-17T01:03:41.328Z,941.9
2017-12-17T01:04:49.417Z,941.9
2017-12-17T01:05:57.502Z,941.9
2017-12-17T01:07:05.585Z,941.9
2017-12-17T01:08:13.792Z,942.0
2017-12-17T01:09:21.761Z,942.0
2017-12-17T01:10:29.856Z,942.0
2017-12-17T01:11:37.996Z,942.0
2017-12-17T01:12:46.028Z,942.0
2017-12-17T01:13:54.234Z,942.0
2017-12-17T01:15:02.201Z,942.0
2017-12-17T01:16:10.294Z,942.1
2017-12-17T01:17:18.497Z,942.1
2017-12-17T01:18:26.468Z,942.1
2017-12-17T01:19:35.002Z,942.1
2017-12-17T01:20:42.710Z,942.1
2017-12-17T01:21:50.737Z,942.1
2017-12-17T01:22:59.024Z,942.1
2017-12-17T01:24:07.096Z,942.1
2017-12-17T01:25:15.047Z,942.1
2017-12-17T01:26:23.332Z,942.1
2017-12-17T01:27:31.594Z,942.1
2017-12-17T01:28:39.284Z,942.1
2017-12-17T01:29:47.394Z,942.1
2017-12-17T01:30:57.307Z,942.2
2017-12-17T01:32:04.122Z,942.2
2017-12-17T01:33:11.715Z,942.2
2017-12-17T01:34:20.087Z,942.2
2017-12-17T01:35:27.771Z,942.3
2017-12-17T01:36:38.044Z,942.3
2017-12-17T01:37:44.157Z,942.3
2017-12-17T01:38:52.570Z,942.3
2017-12-17T01:40:00.167Z,942.4
2017-12-17T01:41:08.226Z,942.4
2017-12-17T01:42:16.693Z,942.4
2017-12-17T01:43:24.564Z,942.4
2017-12-17T01:44:32.479Z,942.4
2017-12-17T01:45:40.623Z,942.4
2017-12-17T01:46:49.355Z,942.5
2017-12-17T01:47:56.868Z,942.5
2017-12-17T01:49:06.392Z,942.5
2017-12-17T01:50:13.064Z,942.5
2017-12-17T01:51:21.441Z,942.5
2017-12-17T01:52:29.306Z,942.5
2017-12-17T01:53:37.469Z,942.5
2017-12-17T01:54:45.832Z,942.6
2017-12-17T01:55:53.348Z,942.5
2017-12-17T01:57:01.601Z,942.5
2017-12-17T01:58:09.589Z,942.5
2017-12-17T01:59:18.446Z,942.5
2017-12-17T02:00:26.884Z,942.6
2017-12-17T02:01:34.032Z,942.5
2017-12-17T02:02:42.071Z,942.6
2017-12-17T02:03:49.952Z,942.5
2017-12-17T02:05:00.234Z,942.6
2017-12-17T02:06:06.715Z,942.5
2017-12-17T02:07:14.589Z,942.5
2017-12-17T02:08:22.981Z,942.6
2017-12-17T02:09:30.528Z,942.5
2017-12-17T02:10:38.606Z,942.5
2017-12-17T02:11:46.570Z,942.5
2017-12-17T02:12:54.764Z,942.5
2017-12-17T02:14:03.373Z,942.5
2017-12-17T02:15:10.831Z,942.4
2017-12-17T02:16:18.976Z,942.4
2017-12-17T02:17:27.526Z,942.5
2017-12-17T02:18:35.112Z,942.5
2017-12-17T02:19:43.728Z,942.5
2017-12-17T02:20:51.396Z,942.5
2017-12-17T02:21:59.567Z,942.5
2017-12-17T02:23:07.640Z,942.5
2017-12-17T02:24:15.748Z,942.5
2017-12-17T02:25:23.765Z,942.5
2017-12-17T02:26:31.911Z,942.5
2017-12-17T02:27:40.929Z,942.5
2017-12-17T02:28:48.096Z,942.5
2017-12-17T02:29:56.015Z,942.5
2017-12-17T02:31:04.084Z,942.5
2017-12-17T02:32:12.164Z,942.5
2017-12-17T02:33:22.406Z,942.5
2017-12-17T02:34:28.457Z,942.5
2017-12-17T02:35:36.952Z,942.5
2017-12-17T02:36:46.699Z,942.5
2017-12-17T02:37:52.652Z,942.5
2017-12-17T02:39:00.811Z,942.5
2017-12-17T02:40:08.867Z,942.5
2017-12-17T02:41:16.867Z,942.5
2017-12-17T02:42:25.145Z,942.5
2017-12-17T02:43:33.375Z,942.5
2017-12-17T02:44:41.317Z,942.5
2017-12-17T02:45:49.211Z,942.5
2017-12-17T02:46:57.297Z,942.6
2017-12-17T02:48:05.384Z,942.5
2017-12-17T02:49:13.655Z,942.6
2017-12-17T02:50:22.233Z,942.6
2017-12-17T02:51:29.978Z,942.6
2017-12-17T02:52:39.633Z,942.6
2017-12-17T02:53:45.817Z,942.6
2017-12-17T02:54:53.905Z,942.7
2017-12-17T02:56:02.111Z,942.7
2017-12-17T02:57:10.093Z,942.7
2017-12-17T02:58:18.165Z,942.7
2017-12-17T02:59:26.262Z,942.7
2017-12-17T03:00:34.358Z,942.7
2017-12-17T03:01:42.502Z,942.7
2017-12-17T03:02:50.727Z,942.7
2017-12-17T03:03:58.653Z,942.7
2017-12-17T03:05:07.025Z,942.7
2017-12-17T03:06:15.529Z,942.7
2017-12-17T03:07:24.870Z,942.7
2017-12-17T03:08:31.374Z,942.7
2017-12-17T03:09:39.167Z,942.8
2017-12-17T03:10:47.147Z,942.8
2017-12-17T03:11:55.234Z,942.8
2017-12-17T03:13:03.366Z,942.8
2017-12-17T03:14:11.572Z,942.8
2017-12-17T03:15:20.224Z,942.9
2017-12-17T03:16:28.032Z,942.9
2017-12-17T03:17:36.302Z,942.8
2017-12-17T03:18:45.934Z,942.8
2017-12-17T03:19:52.455Z,942.8
2017-12-17T03:21:00.429Z,942.9
2017-12-17T03:22:08.217Z,942.9
2017-12-17T03:23:16.119Z,942.9
2017-12-17T03:24:24.332Z,942.9
2017-12-17T03:25:32.962Z,942.9
2017-12-17T03:26:40.379Z,942.9
2017-12-17T03:27:48.467Z,942.9
2017-12-17T03:28:57.173Z,942.9
2017-12-17T03:30:05.454Z,943.0
2017-12-17T03:31:12.740Z,942.9
2017-12-17T03:32:20.815Z,942.9
2017-12-17T03:33:28.965Z,943.0
2017-12-17T03:34:36.985Z,942.9
2017-12-17T03:35:45.195Z,943.0
2017-12-17T03:36:53.160Z,943.0
2017-12-17T03:38:01.253Z,943.0
2017-12-17T03:39:09.403Z,943.0
2017-12-17T03:40:17.607Z,943.0
2017-12-17T03:41:26.243Z,943.0
2017-12-17T03:42:33.597Z,943.0
2017-12-17T03:43:41.680Z,943.0
2017-12-17T03:44:49.772Z,943.1
2017-12-17T03:45:58.562Z,943.0
2017-12-17T03:47:06.071Z,943.1
2017-12-17T03:48:14.357Z,943.1
2017-12-17T03:49:22.727Z,943.1
2017-12-17T03:50:30.844Z,943.1
2017-12-17T03:51:38.463Z,943.1
2017-12-17T03:52:46.448Z,943.1
2017-12-17T03:53:55.115Z,943.1
2017-12-17T03:55:02.568Z,943.1
2017-12-17T03:56:10.776Z,943.1
2017-12-17T03:57:18.744Z,943.1
2017-12-17T03:58:28.809Z,943.2
2017-12-17T03:59:35.007Z,943.2
2017-12-17T04:00:43.001Z,943.2
2017-12-17T04:01:51.570Z,943.1
2017-12-17T04:02:59.179Z,943.2
2017-12-17T04:04:07.632Z,943.1
2017-12-17T04:05:15.490Z,943.1
2017-12-17T04:06:23.852Z,943.2
2017-12-17T04:07:31.569Z,943.1
2017-12-17T04:08:39.714Z,943.2
2017-12-17T04:09:48.815Z,943.2
2017-12-17T04:10:56.074Z,943.2
2017-12-17T04:12:03.987Z,943.2
2017-12-17T04:13:11.955Z,943.2
2017-12-17T04:14:20.504Z,943.2
2017-12-17T04:15:28.962Z,943.2
2017-12-17T04:16:36.471Z,943.2
2017-12-17T04:17:44.851Z,943.2
2017-12-17T04:18:52.967Z,943.2
2017-12-17T04:20:00.475Z,943.2
2017-12-17T04:21:09.512Z,943.3
2017-12-17T04:22:16.828Z,943.3
2017-12-17T04:23:25.150Z,943.2
2017-12-17T04:24:32.828Z,943.3
2017-12-17T04:25:40.917Z,943.3
2017-12-17T04:26:50.511Z,943.3
2017-12-17T04:27:59.034Z,943.2
2017-12-17T04:29:05.190Z,943.2
2017-12-17T04:30:13.260Z,943.2
2017-12-17T04:31:21.749Z,943.3
2017-12-17T04:32:29.493Z,943.3
2017-12-17T04:33:37.526Z,943.3
2017-12-17T04:34:45.608Z,943.3
2017-12-17T04:35:53.692Z,943.3
2017-12-17T04:37:02.454Z,943.3
2017-12-17T04:38:10.242Z,943.4
2017-12-17T04:39:18.112Z,943.4
2017-12-17T04:40:26.602Z,943.4
2017-12-17T04:41:34.393Z,943.4
2017-12-17T04:42:42.992Z,943.4
2017-12-17T04:43:52.336Z,943.4
2017-12-17T04:44:58.388Z,943.4
2017-12-17T04:46:06.629Z,943.4
2017-12-17T04:47:14.557Z,943.4
2017-12-17T04:48:22.925Z,943.4
2017-12-17T04:49:30.953Z,943.4
2017-12-17T04:50:39.222Z,943.4
2017-12-17T04:51:47.091Z,943.4
2017-12-17T04:52:55.795Z,943.5
2017-12-17T04:54:03.358Z,943.5
2017-12-17T04:55:11.450Z,943.5
2017-12-17T04:56:19.491Z,943.5
2017-12-17T04:57:27.502Z,943.6
2017-12-17T04:58:35.590Z,943.5
2017-12-17T04:59:43.732Z,943.6
2017-12-17T05:00:51.879Z,943.6
2017-12-17T05:01:59.858Z,943.6
2017-12-17T05:03:07.944Z,943.6
2017-12-17T05:04:16.028Z,943.6
2017-12-17T05:05:24.122Z,943.6
2017-12-17T05:06:32.345Z,943.6
2017-12-17T05:07:40.291Z,943.7
2017-12-17T05:08:48.376Z,943.7
2017-12-17T05:09:56.541Z,943.7
2017-12-17T05:11:04.548Z,943.7
2017-12-17T05:12:12.692Z,943.7
2017-12-17T05:13:20.723Z,943.7
2017-12-17T05:14:28.990Z,943.8
2017-12-17T05:15:37.128Z,943.7
2017-12-17T05:16:44.984Z,943.7
2017-12-17T05:17:53.188Z,943.8
2017-12-17T05:19:01.340Z,943.7
2017-12-17T05:20:09.242Z,943.7
2017-12-17T05:21:17.326Z,943.8
2017-12-17T05:22:25.415Z,943.8
2017-12-17T05:23:33.631Z,943.8
2017-12-17T05:24:41.608Z,943.8
2017-12-17T05:25:49.683Z,943.8
2017-12-17T05:26:57.786Z,943.8
2017-12-17T05:28:05.868Z,943.8
2017-12-17T05:29:14.084Z,943.9
2017-12-17T05:30:22.050Z,943.9
2017-12-17T05:31:30.194Z,943.9
2017-12-17T05:32:38.225Z,943.9
2017-12-17T05:33:46.407Z,943.9
2017-12-17T05:34:54.523Z,943.9
2017-12-17T05:36:02.486Z,943.9
2017-12-17T05:37:10.571Z,943.9
2017-12-17T05:38:18.745Z,943.9
2017-12-17T05:39:26.847Z,943.9
2017-12-17T05:40:35.009Z,944.0
2017-12-17T05:41:43.037Z,943.9
2017-12-17T05:42:51.121Z,944.0
2017-12-17T05:43:59.220Z,944.0
2017-12-17T05:45:07.291Z,944.0
2017-12-17T05:46:15.502Z,944.0
2017-12-17T05:47:23.589Z,944.0
2017-12-17T05:48:31.556Z,944.0
2017-12-17T05:49:39.644Z,944.0
2017-12-17T05:50:47.728Z,944.0
2017-12-17T05:51:55.874Z,944.0
2017-12-17T05:53:03.904Z,944.0
2017-12-17T05:54:11.990Z,944.1
2017-12-17T05:55:20.076Z,944.1
2017-12-17T05:56:28.166Z,944.1
2017-12-17T05:57:36.383Z,944.1
2017-12-17T05:58:44.339Z,944.2
2017-12-17T05:59:52.426Z,944.1
2017-12-17T06:01:00.514Z,944.2
2017-12-17T06:02:08.609Z,944.2
2017-12-17T06:03:16.746Z,944.2
2017-12-17T06:04:24.777Z,944.2
2017-12-17T06:05:32.872Z,944.2
2017-12-17T06:06:40.953Z,944.2
2017-12-17T06:07:49.042Z,944.2
2017-12-17T06:08:57.249Z,944.2
2017-12-17T06:10:05.359Z,944.3
2017-12-17T06:11:13.410Z,944.2
2017-12-17T06:12:21.500Z,944.3
2017-12-17T06:13:29.598Z,944.3
2017-12-17T06:14:37.865Z,944.3
2017-12-17T06:15:45.769Z,944.3
2017-12-17T06:16:53.856Z,944.4
2017-12-17T06:18:02.014Z,944.3
2017-12-17T06:19:10.154Z,944.4
2017-12-17T06:20:18.182Z,944.4
2017-12-17T06:21:26.219Z,944.4
2017-12-17T06:22:34.439Z,944.4
2017-12-17T06:23:42.466Z,944.4
2017-12-17T06:24:50.466Z,944.4
2017-12-17T06:25:58.620Z,944.4
2017-12-17T06:27:06.653Z,944.4
2017-12-17T06:28:14.740Z,944.5
2017-12-17T06:29:22.829Z,944.5
2017-12-17T06:30:30.914Z,944.4
2017-12-17T06:31:39.057Z,944.5
2017-12-17T06:32:47.088Z,944.5
2017-12-17T06:33:55.174Z,944.5
2017-12-17T06:35:03.382Z,944.5
2017-12-17T06:36:11.351Z,944.5
2017-12-17T06:37:19.493Z,944.5
2017-12-17T06:38:27.526Z,944.5
2017-12-17T06:39:35.610Z,944.5
2017-12-17T06:40:43.696Z,944.5
2017-12-17T06:41:51.783Z,944.5
2017-12-17T06:42:59.949Z,944.5
2017-12-17T06:44:07.958Z,944.5
2017-12-17T06:45:16.044Z,944.5
2017-12-17T06:46:24.130Z,944.5
2017-12-17T06:47:32.216Z,944.5
2017-12-17T06:48:40.431Z,944.5
2017-12-17T06:49:48.390Z,944.5
2017-12-17T06:50:56.597Z,944.6
2017-12-17T06:52:04.564Z,944.5
2017-12-17T06:53:12.652Z,944.6
2017-12-17T06:54:20.801Z,944.6
2017-12-17T06:55:28.993Z,944.5
2017-12-17T06:56:36.923Z,944.6
2017-12-17T06:57:45.013Z,944.6
2017-12-17T06:58:53.123Z,944.7
2017-12-17T07:00:01.319Z,944.7
2017-12-17T07:01:09.293Z,944.7
2017-12-17T07:02:17.380Z,944.7
2017-12-17T07:03:25.468Z,944.8
2017-12-17T07:04:33.551Z,944.8
2017-12-17T07:05:41.694Z,944.8
2017-12-17T07:06:49.780Z,944.8
2017-12-17T07:07:57.814Z,944.8
2017-12-17T07:09:06.058Z,944.8
2017-12-17T07:10:13.999Z,944.8
2017-12-17T07:11:22.202Z,944.9
2017-12-17T07:12:30.170Z,944.9
2017-12-17T07:13:38.257Z,944.9
2017-12-17T07:14:46.352Z,944.9
2017-12-17T07:15:54.439Z,944.9
2017-12-17T07:17:02.606Z,944.9
2017-12-17T07:18:10.613Z,944.9
2017-12-17T07:19:18.700Z,945.0
2017-12-17T07:20:26.786Z,944.9
2017-12-17T07:21:35.567Z,945.0
2017-12-17T07:22:43.773Z,945.0
2017-12-17T07:23:51.740Z,945.0
2017-12-17T07:24:59.986Z,944.9
2017-12-17T07:26:07.913Z,945.0
2017-12-17T07:27:15.999Z,945.0
2017-12-17T07:28:24.142Z,945.0
2017-12-17T07:29:32.175Z,945.0
2017-12-17T07:30:40.266Z,945.0
2017-12-17T07:31:48.350Z,945.0
2017-12-17T07:32:56.435Z,945.0
2017-12-17T07:34:04.793Z,945.0
2017-12-17T07:35:12.612Z,945.0
2017-12-17T07:36:20.699Z,945.0
2017-12-17T07:37:28.792Z,945.1
2017-12-17T07:38:37.020Z,945.1
2017-12-17T07:39:45.078Z,945.1
2017-12-17T07:40:53.045Z,945.1
2017-12-17T07:42:01.133Z,945.1
2017-12-17T07:43:09.224Z,945.1
2017-12-17T07:44:17.306Z,945.1
2017-12-17T07:45:25.458Z,945.1
2017-12-17T07:46:33.484Z,945.2
2017-12-17T07:47:41.569Z,945.1
2017-12-17T07:48:49.665Z,945.1
2017-12-17T07:49:57.771Z,945.1
2017-12-17T07:51:05.988Z,945.2
2017-12-17T07:52:14.134Z,945.2
2017-12-17T07:53:22.044Z,945.2
2017-12-17T07:54:30.188Z,945.2
2017-12-17T07:55:38.220Z,945.2
2017-12-17T07:56:46.603Z,945.2
2017-12-17T07:57:54.395Z,945.2
2017-12-17T07:59:02.493Z,945.2
2017-12-17T08:00:10.580Z,945.3
2017-12-17T08:01:18.838Z,945.3
2017-12-17T08:02:26.879Z,945.3
2017-12-17T08:03:34.841Z,945.3
2017-12-17T08:04:42.925Z,945.3
2017-12-17T08:05:51.188Z,945.3
2017-12-17T08:06:59.876Z,945.3
2017-12-17T08:08:07.309Z,945.4
2017-12-17T08:09:15.286Z,945.4
2017-12-17T08:10:23.495Z,945.4
2017-12-17T08:11:31.455Z,945.4
2017-12-17T08:12:39.541Z,945.4
2017-12-17T08:13:47.686Z,945.4
2017-12-17T08:14:55.715Z,945.4
2017-12-17T08:16:03.802Z,945.4
2017-12-17T08:17:11.891Z,945.5
2017-12-17T08:18:19.978Z,945.5
2017-12-17T08:19:28.338Z,945.5
2017-12-17T08:20:36.152Z,945.5
2017-12-17T08:21:44.239Z,945.5
2017-12-17T08:22:52.324Z,945.5
2017-12-17T08:24:00.413Z,945.5
2017-12-17T08:25:08.556Z,945.5
2017-12-17T08:26:16.707Z,945.5
2017-12-17T08:27:24.672Z,945.5
2017-12-17T08:28:32.897Z,945.6
2017-12-17T08:29:40.909Z,945.5
2017-12-17T08:30:49.056Z,945.6
2017-12-17T08:31:57.020Z,945.5
2017-12-17T08:33:05.125Z,945.6
2017-12-17T08:34:13.194Z,945.6
2017-12-17T08:35:21.279Z,945.6
2017-12-17T08:36:29.427Z,945.6
2017-12-17T08:37:37.596Z,945.6
2017-12-17T08:38:45.938Z,945.7
2017-12-17T08:39:53.631Z,945.7
2017-12-17T08:41:01.715Z,945.7
2017-12-17T08:42:09.925Z,945.8
2017-12-17T08:43:17.961Z,945.8
2017-12-17T08:44:25.976Z,945.8
2017-12-17T08:45:34.060Z,945.8
2017-12-17T08:46:42.177Z,945.8
2017-12-17T08:47:50.466Z,945.8
2017-12-17T08:48:58.326Z,945.8
2017-12-17T08:50:06.408Z,945.9
2017-12-17T08:51:14.492Z,945.9
2017-12-17T08:52:22.747Z,945.9
2017-12-17T08:53:30.785Z,945.9
2017-12-17T08:54:38.751Z,945.9
2017-12-17T08:55:46.846Z,945.9
2017-12-17T08:56:55.092Z,945.9
2017-12-17T08:58:03.069Z,945.9
2017-12-17T08:59:11.292Z,945.9
2017-12-17T09:00:19.187Z,945.9
2017-12-17T09:01:27.335Z,945.9
2017-12-17T09:02:35.364Z,945.9
2017-12-17T09:03:43.461Z,946.0
2017-12-17T09:04:51.671Z,945.9
2017-12-17T09:05:59.680Z,946.0
2017-12-17T09:07:07.730Z,946.0
2017-12-17T09:08:15.821Z,946.0
2017-12-17T09:09:23.902Z,946.0
2017-12-17T09:10:32.189Z,946.0
2017-12-17T09:11:40.078Z,946.1
2017-12-17T09:12:48.164Z,946.0
2017-12-17T09:13:56.389Z,946.1
2017-12-17T09:15:04.401Z,946.1
2017-12-17T09:16:12.498Z,946.1
2017-12-17T09:17:20.530Z,946.1
2017-12-17T09:18:28.616Z,946.2
2017-12-17T09:19:36.762Z,946.2
2017-12-17T09:20:44.788Z,946.2
2017-12-17T09:21:52.929Z,946.2
2017-12-17T09:23:00.961Z,946.2
2017-12-17T09:24:09.045Z,946.2
2017-12-17T09:25:17.139Z,946.2
2017-12-17T09:26:25.221Z,946.3
2017-12-17T09:27:33.361Z,946.3
2017-12-17T09:28:41.541Z,946.3
2017-12-17T09:29:49.600Z,946.3
2017-12-17T09:30:57.565Z,946.4
2017-12-17T09:32:05.651Z,946.4
2017-12-17T09:33:13.795Z,946.4
2017-12-17T09:34:21.897Z,946.4
2017-12-17T09:35:29.916Z,946.5
2017-12-17T09:36:37.998Z,946.5
2017-12-17T09:37:46.086Z,946.5
2017-12-17T09:38:54.227Z,946.5
2017-12-17T09:40:02.257Z,946.4
2017-12-17T09:41:10.355Z,946.5
2017-12-17T09:42:18.439Z,946.4
2017-12-17T09:43:26.526Z,946.5
2017-12-17T09:44:34.669Z,946.4
2017-12-17T09:45:42.893Z,946.4
2017-12-17T09:46:50.789Z,946.4
2017-12-17T09:47:58.922Z,946.4
2017-12-17T09:49:06.962Z,946.5
2017-12-17T09:50:15.257Z,946.5
2017-12-17T09:51:23.135Z,946.5
2017-12-17T09:52:31.222Z,946.5
2017-12-17T09:53:39.308Z,946.5
2017-12-17T09:54:47.396Z,946.5
2017-12-17T09:55:55.599Z,946.5
2017-12-17T09:57:03.692Z,946.5
2017-12-17T09:58:11.650Z,946.5
2017-12-17T09:59:19.740Z,946.5
2017-12-17T10:00:27.823Z,946.5
2017-12-17T10:01:35.968Z,946.6
2017-12-17T10:02:43.996Z,946.6
2017-12-17T10:03:52.083Z,946.6
2017-12-17T10:05:00.172Z,946.6
2017-12-17T10:06:08.257Z,946.6
2017-12-17T10:07:16.467Z,946.5
2017-12-17T10:08:24.429Z,946.5
2017-12-17T10:09:32.514Z,946.5
2017-12-17T10:10:40.751Z,946.5
2017-12-17T10:11:48.686Z,946.5
2017-12-17T10:12:56.835Z,946.5
2017-12-17T10:14:04.863Z,946.5
2017-12-17T10:15:13.088Z,946.5
2017-12-17T10:16:21.034Z,946.5
2017-12-17T10:17:29.238Z,946.5
2017-12-17T10:18:37.261Z,946.5
2017-12-17T10:19:45.291Z,946.5
2017-12-17T10:20:53.380Z,946.5
2017-12-17T10:22:01.464Z,946.5
2017-12-17T10:23:09.550Z,946.5
2017-12-17T10:24:17.692Z,946.5
2017-12-17T10:25:25.722Z,946.5
2017-12-17T10:26:33.808Z,946.5
2017-12-17T10:27:41.895Z,946.5
2017-12-17T10:28:49.977Z,946.5
2017-12-17T10:29:58.187Z,946.5
2017-12-17T10:31:06.163Z,946.6
2017-12-17T10:32:14.251Z,946.6
2017-12-17T10:33:22.387Z,946.6
2017-12-17T10:34:30.417Z,946.6
2017-12-17T10:35:38.564Z,946.6
2017-12-17T10:36:46.590Z,946.6
2017-12-17T10:37:54.678Z,946.6
2017-12-17T10:39:02.757Z,946.6
2017-12-17T10:40:10.848Z,946.6
2017-12-17T10:41:19.062Z,946.6
2017-12-17T10:42:27.022Z,946.6
2017-12-17T10:43:35.154Z,946.7
2017-12-17T10:44:43.199Z,946.7
2017-12-17T10:45:51.295Z,946.6
2017-12-17T10:46:59.674Z,946.6
2017-12-17T10:48:07.712Z,946.6
2017-12-17T10:49:15.921Z,946.6
2017-12-17T10:50:23.885Z,946.5
2017-12-17T10:51:32.038Z,946.6
2017-12-17T10:52:40.117Z,946.6
2017-12-17T10:53:48.151Z,946.6
2017-12-17T10:54:56.237Z,946.5
2017-12-17T10:56:04.479Z,946.6
2017-12-17T10:57:12.404Z,946.5
2017-12-17T10:58:20.549Z,946.5
2017-12-17T10:59:28.577Z,946.5
2017-12-17T11:00:36.825Z,946.5
2017-12-17T11:01:44.751Z,946.5
2017-12-17T11:02:52.836Z,946.6
2017-12-17T11:04:00.977Z,946.5
2017-12-17T11:05:09.280Z,946.6
2017-12-17T11:06:17.097Z,946.6
2017-12-17T11:07:25.190Z,946.6
2017-12-17T11:08:33.285Z,946.6
2017-12-17T11:09:41.433Z,946.6
2017-12-17T11:10:49.458Z,946.6
2017-12-17T11:11:57.542Z,946.6
2017-12-17T11:13:05.632Z,946.6
2017-12-17T11:14:13.717Z,946.5
2017-12-17T11:15:21.930Z,946.6
2017-12-17T11:16:29.895Z,946.6
2017-12-17T11:17:37.981Z,946.6
2017-12-17T11:18:46.068Z,946.6
2017-12-17T11:19:54.153Z,946.5
2017-12-17T11:21:02.361Z,946.5
2017-12-17T11:22:10.329Z,946.5
2017-12-17T11:23:18.414Z,946.5
2017-12-17T11:24:26.499Z,946.5
2017-12-17T11:25:34.586Z,946.5
2017-12-17T11:26:42.731Z,946.5
2017-12-17T11:27:50.761Z,946.5
2017-12-17T11:28:58.847Z,946.5
2017-12-17T11:30:06.944Z,946.5
2017-12-17T11:31:15.020Z,946.5
2017-12-17T11:32:23.229Z,946.6
2017-12-17T11:33:31.195Z,946.6
2017-12-17T11:34:39.283Z,946.6
2017-12-17T11:35:47.366Z,946.6
2017-12-17T11:36:55.510Z,946.6
2017-12-17T11:38:03.661Z,946.6
2017-12-17T11:39:11.627Z,946.5
2017-12-17T11:40:19.714Z,946.6
2017-12-17T11:41:27.802Z,946.6
2017-12-17T11:42:35.957Z,946.6
2017-12-17T11:43:44.031Z,946.5
2017-12-17T11:44:52.071Z,946.5
2017-12-17T11:46:00.146Z,946.5
2017-12-17T11:47:08.232Z,946.5
2017-12-17T11:48:16.317Z,946.5
2017-12-17T11:49:24.526Z,946.5
2017-12-17T11:50:32.503Z,946.4
2017-12-17T11:51:40.578Z,946.4
2017-12-17T11:52:48.786Z,946.5
2017-12-17T11:53:56.752Z,946.4
2017-12-17T11:55:04.978Z,946.5
2017-12-17T11:56:13.225Z,946.5
2017-12-17T11:57:21.021Z,946.4
2017-12-17T11:58:29.111Z,946.5
2017-12-17T11:59:37.392Z,946.5
2017-12-17T12:00:45.501Z,946.5
2017-12-17T12:01:53.366Z,946.5
2017-12-17T12:03:01.458Z,946.5
2017-12-17T12:04:09.542Z,946.5
2017-12-17T12:05:17.797Z,946.5
2017-12-17T12:06:25.838Z,946.5
2017-12-17T12:07:33.802Z,946.5
2017-12-17T12:08:42.011Z,946.5
2017-12-17T12:09:50.134Z,946.5
2017-12-17T12:10:58.062Z,946.5
2017-12-17T12:12:06.203Z,946.5
2017-12-17T12:13:14.237Z,946.5
2017-12-17T12:14:22.484Z,946.5
2017-12-17T12:15:30.432Z,946.5
2017-12-17T12:16:38.521Z,946.5
2017-12-17T12:17:46.740Z,946.5
2017-12-17T12:18:54.692Z,946.5
2017-12-17T12:20:02.786Z,946.5
2017-12-17T12:21:10.878Z,946.5
2017-12-17T12:22:18.964Z,946.5
2017-12-17T12:23:27.131Z,946.5
2017-12-17T12:24:35.249Z,946.6
2017-12-17T12:25:43.213Z,946.6
2017-12-17T12:26:51.301Z,946.6
2017-12-17T12:27:59.385Z,946.5
2017-12-17T12:29:07.529Z,946.5
2017-12-17T12:30:15.559Z,946.5
2017-12-17T12:31:23.646Z,946.5
2017-12-17T12:32:31.856Z,946.6
2017-12-17T12:33:39.864Z,946.6
2017-12-17T12:34:48.061Z,946.6
2017-12-17T12:35:56.026Z,946.6
2017-12-17T12:37:04.112Z,946.6
2017-12-17T12:38:12.201Z,946.6
2017-12-17T12:39:20.302Z,946.6
2017-12-17T12:40:28.491Z,946.6
2017-12-17T12:41:36.570Z,946.5
2017-12-17T12:42:44.555Z,946.6
2017-12-17T12:43:52.716Z,946.6
2017-12-17T12:45:01.023Z,946.6
2017-12-17T12:46:08.962Z,946.6
2017-12-17T12:47:16.970Z,946.6
2017-12-17T12:48:25.055Z,946.6
2017-12-17T12:49:33.144Z,946.6
2017-12-17T12:50:41.347Z,946.6
2017-12-17T12:51:49.441Z,946.6
2017-12-17T12:52:57.412Z,946.6
2017-12-17T12:54:05.485Z,946.6
2017-12-17T12:55:13.711Z,946.6
2017-12-17T12:56:21.718Z,946.6
2017-12-17T12:57:29.822Z,946.6
2017-12-17T12:58:37.844Z,946.6
2017-12-17T12:59:45.925Z,946.6
2017-12-17T13:00:54.079Z,946.7
2017-12-17T13:02:02.103Z,946.7
2017-12-17T13:03:10.310Z,946.7
2017-12-17T13:04:18.442Z,946.7
2017-12-17T13:05:26.376Z,946.7
2017-12-17T13:06:34.454Z,946.7
2017-12-17T13:07:42.552Z,946.7
2017-12-17T13:08:50.699Z,946.7
2017-12-17T13:09:58.726Z,946.7
2017-12-17T13:11:06.808Z,946.7
2017-12-17T13:12:15.014Z,946.7
2017-12-17T13:13:22.994Z,946.7
2017-12-17T13:14:31.139Z,946.7
2017-12-17T13:15:39.154Z,946.7
2017-12-17T13:16:47.252Z,946.7
2017-12-17T13:17:55.324Z,946.7
2017-12-17T13:19:03.566Z,946.8
2017-12-17T13:20:11.710Z,946.7
2017-12-17T13:21:19.753Z,946.7
2017-12-17T13:22:27.939Z,946.8
2017-12-17T13:23:35.925Z,946.8
2017-12-17T13:24:44.001Z,946.7
2017-12-17T13:25:52.207Z,946.8
2017-12-17T13:27:00.222Z,946.8
2017-12-17T13:28:08.393Z,946.8
2017-12-17T13:29:16.360Z,946.8
2017-12-17T13:30:24.433Z,946.8
2017-12-17T13:31:32.725Z,946.8
2017-12-17T13:32:40.622Z,946.8
2017-12-17T13:33:48.698Z,946.8
2017-12-17T13:34:56.786Z,946.9
2017-12-17T13:36:04.871Z,946.9
2017-12-17T13:37:13.015Z,946.9
2017-12-17T13:38:21.054Z,946.9
2017-12-17T13:39:29.129Z,947.0
2017-12-17T13:40:37.229Z,947.0
2017-12-17T13:41:45.302Z,947.0
2017-12-17T13:42:53.509Z,947.0
2017-12-17T13:44:01.548Z,947.0
2017-12-17T13:46:17.660Z,947.0
2017-12-17T13:47:25.735Z,947.0
2017-12-17T13:48:33.941Z,947.0
2017-12-17T13:49:42.049Z,947.0
2017-12-17T13:50:50.071Z,947.0
2017-12-17T13:51:58.080Z,947.0
2017-12-17T13:53:06.192Z,947.1
2017-12-17T13:54:14.441Z,947.0
2017-12-17T13:55:22.379Z,947.0
2017-12-17T13:56:30.451Z,947.0
2017-12-17T13:57:38.543Z,947.0
2017-12-17T13:58:46.805Z,947.0
2017-12-17T13:59:54.952Z,947.0
2017-12-17T14:01:02.809Z,947.0
2017-12-17T14:02:10.893Z,947.0
2017-12-17T14:03:19.080Z,947.0
2017-12-17T14:04:27.059Z,947.0
2017-12-17T14:05:35.220Z,947.0
2017-12-17T14:06:43.230Z,947.0
2017-12-17T14:07:51.316Z,947.0
2017-12-17T14:08:59.430Z,947.0
2017-12-17T14:10:07.494Z,947.0
2017-12-17T14:11:15.715Z,947.0
2017-12-17T14:12:23.668Z,947.0
2017-12-17T14:13:31.754Z,947.0
2017-12-17T14:14:39.842Z,947.1
2017-12-17T14:15:47.983Z,947.0
2017-12-17T14:16:56.148Z,947.1
2017-12-17T14:18:04.127Z,947.0
2017-12-17T14:19:12.188Z,947.0
2017-12-17T14:20:20.285Z,947.1
2017-12-17T14:21:28.358Z,947.1
2017-12-17T14:22:36.709Z,947.1
2017-12-17T14:23:44.544Z,947.1
2017-12-17T14:24:52.641Z,947.2
2017-12-17T14:26:00.706Z,947.2
2017-12-17T14:27:08.797Z,947.2
2017-12-17T14:28:16.954Z,947.3
2017-12-17T14:29:24.986Z,947.3
2017-12-17T14:30:33.071Z,947.3
2017-12-17T14:31:41.202Z,947.3
2017-12-17T14:32:49.230Z,947.3
2017-12-17T14:33:57.334Z,947.3
2017-12-17T14:35:05.418Z,947.4
2017-12-17T14:36:13.493Z,947.4
2017-12-17T14:37:21.579Z,947.4